Airfield :
LOGIN :

Register | Disclaimer

   EN    FR    IT 

 










Legend :    VFR   Marginal VFR   IFR   Intensive IFR   Very Intensive IFR
Visi :
Ceiling :
>= 8 km
>= 3000ft
5 to 8 km
1000 to 3000 ft
1500m to 5 km
500 to 1000 ft
800 to 1500m
200 to 500 ft
< 800m
< 200 ft
Symbols :   Thunderstorms  Fog  Heavy snow  Heavy precipitations  Wind > 20 kt
SIGMETs :     Misc.  Thunderstorms  Icing  Turbulence  Mountain Waves  Volcanic Ashes







- Airport Elevation : 876 ft
- IATA code : MBX


LJMB - Maribor

CURRENT METAR :
  • 230000Z AUTO 22013KT 9999 NSC 08/02 Q1010

EXPIRED METARs :
  • 222330Z AUTO 22014KT 9999 NSC 08/02 Q1010
  • 222300Z AUTO 22012KT 9999 NSC 08/02 Q1010
  • 222230Z AUTO 20008KT 9999 NSC 08/02 Q1010
  • 222200Z AUTO 20008KT 9999 NSC 07/02 Q1010
  • 222130Z 22011KT CAVOK 08/02 Q1010
  • 222100Z 22013KT CAVOK 08/03 Q1010

TAF TAF LJMB
Valid from the 23 at 00:00 until the 24 at 00:00 UTC


222300Z 2300/2324 22008KT CAVOK
BECMG 2309/2312 21015KT
TEMPO 2311/2320 22020G35KT
BECMG 2320/2322 22020G35KT
No reported NOTAMs for that airfield.



MET'MAP, your aeronautical weather chart ! - Copyright ORBIFLY December 2007 - Disclaimer

ORBIFLY MET'MAP TEAM :

Programming & Development : Alexandra Zaïnal
Concept & Development : Baudouin d'Aumeries
Co-Development & Prog : Marc-Olivier Méhu
Technical & hardware support : Manuel Goepfert

Contact : metmap@orbifly.com




SOURCES & CREDITS :

   NOAA